ADDS TAF Board (Experimental) INFO Settings
IDs:

KMCI - Kansas City Intl, MO, US

Issued at 1128 UTC 03 Aug 2015
Updated at: 1322 UTC 03 Aug 2015
Time1253Z 03/14Z 03/15Z 03/16Z 03/17Z 03/18Z 03/19Z 03/20Z 03/21Z 03/22Z 03/23Z 04/00Z 04/01Z 04/02Z
Type OBS PRVL PRVL PRVL PRVL PRVL PRVL PRVL PRVL PRVL PRVL PRVL PRVL PRVL
VIS 10 >6 >6 >6 >6 >6 >6 >6 >6 >6 >6 >6 >6 >6
CIG 250 -- -- -- -- -- -- -- -- -- -- -- -- --
Cover BKN FEW FEW FEW FEW FEW FEW SCT SCT SCT SCT SCT SCT SCT
FltCat VFR VFR VFR VFR VFR VFR VFR VFR VFR VFR VFR VFR VFR VFR
WX -- -- -- -- -- -- -- VCTS VCTS VCTS VCTS VCTS VCTS VCTS
WDir VRB 200 200 200 200 200 200 50 50 50 50 50 100 100
WSpd 0 7 7 7 7 7 7 7 7 7 7 7 6 6
WGst -- -- -- -- -- -- -- -- -- -- -- -- -- --
R01/19
XWnd VRB 1 1 1 1 1 1 -4 -4 -4 -4 -4 -6 -6
HWnd VRB -7 -7 -7 -7 -7 -7 6 6 6 6 6 0 0
R09/27
XWnd VRB -7 -7 -7 -7 -7 -7 5 5 5 5 5 -0 -0
HWnd VRB -2 -2 -2 -2 -2 -2 5 5 5 5 5 6 6

NOTE: TEMPO conditions in [brackets]. Keep in mind TEMPO conditions might be better (lower impact) than prevailing conditions.

Raw TAF
KMCI 031128Z 0312/0412 20007KT P6SM FEW100
  FM032000 05007KT P6SM VCTS SCT050CB
  FM040100 10006KT P6SM VCTS SCT050CB


Raw METAR
KMCI 031253Z 00000KT 10SM SCT075 BKN250 23/19 A2994 RMK AO2 LTG DSNT N AND NE SLP127 CB DSNT N-NE T02280189
KMCI 031153Z 18004KT 10SM FEW130 FEW200 21/18 A2992 RMK AO2 SLP120 OCNL LTGICCC DSNT N-NE CB DSNT NE T02060183 10250 20200 53002
KMCI 031053Z 20006KT 10SM FEW100 20/18 A2990 RMK AO2 SLP113 CONS LTGICCC DSNT N T02000183

METAR Board
Radar Display
Forecast Discussion

TAF Board Legend

Potential Impact
Threat None Slight Moderate High
Visibility (sm) ≥5.1 5.1>X≥3 3>X≥1 <1
Ceiling (100 ft) ≥30.1 30.1>X≥10 10>X≥5 <5
Wind Speed (kt) <10 10≤X<20 20≤X<30 ≥30
Wind Gust (kt) <15 15≤X<25 25≤X<35 ≥35
Weather No Wx Reported VCTS,-TS,-FZRA,SN TS,FZRA +TS,+FZRA,+SN